Extreme weather reports worldwide

Highest temperatures

Station
 
Location
 
Name
 
Wind
Knots
Gust
Knots
Vis
SM
Temp/Dew
C
Baro
inHg
METAR
 
TET FQTT Tete, MZ Chingozi Airport 6 6.21 44/14 29.59 FQTT 251400Z 20006KT 160V310 9999 SCT020 44/14 Q1002
RES SARE Resistencia, AR Resistencia International Airport 12 24 6.21 39/17 29.70 SARE 251400Z 33012G24KT 300V010 CAVOK 39/17 Q1006
CNQ SARC Corrientes, AR Corrientes Airport 24 6.21 38/16 29.70 SARC 251400Z 02024KT CAVOK 38/16 Q1006
FMA SARF Formosa, AR Formosa Airport 19 6.21 38/18 29.70 SARF 251400Z 36019KT CAVOK 38/18 Q1006
PSS SARP Posadas, AR Libertador Gral D Jose De San Martin Airport 15 27 4.97 38/18 29.79 SARP 251400Z 36015G27KT 8000 NSC 38/18 Q1009

Station
 
Location
 
Name
 
Wind
Knots
Gust
Knots
Vis
SM
Temp/Dew
C
Baro
inHg
METAR
 
SKO DNSO Sokoto, NG Sadiq Abubakar III International Airport 5 6.21 37/12 29.85 DNSO 251300Z 09005KT CAVOK 37/12 Q1011
GOU FKKR Garoua, CM Garoua International Airport 8 6.21 37/6 29.79 FKKR 251300Z 10008KT 060V150 CAVOK 37/06 Q1009 NOSIG
OKF FYOO Okaukuejo, NA Okaukuejo Airport 1 37/3 29.91 FYOO 251300Z AUTO 27001KT //// // ////// 37/03 Q1013
APL FQNP Nampula, MZ Nampula Airport 8 6.21 37/14 29.79 FQNP 251400Z 10008KT 070V130 9999 SCT020 37/14 Q1009
ASU SGAS Asunción, PY Silvio Pettirossi International Airport 20 6.21 37/19 29.79 SGAS 251400Z 04020KT CAVOK 37/19 Q1009
IBA DNIB Ibadan, NG Ibadan Airport 5 6.21 36/20 29.82 DNIB 251300Z 13005KT 9999 SCT013 36/20 Q1010
NIM DRRN Niamey, NE Diori Hamani International Airport 5 6.21 36/-2 29.82 DRRN 251300Z 36005KT 280V060 CAVOK 36/M02 Q1010 NOSIG
VPE FNGI Ngiva, AO Ngjiva Pereira Airport 6 6.21 36/6 29.88 FNGI 251300Z 18006KT 9999 FEW020 36/06 Q1012
PSZ SLPS Puerto Suárez, BO Capitán Av. Salvador Ogaya G. airport 15 6.21 36/26 29.85 SLPS 251400Z 36015KT 9999 FEW020 36/26 Q1011
VLM SLVM Villamontes, BO Teniente Coronel Rafael Pabón Airport 15 28 6.21 36/22 29.65 SLVM 251400Z 36015G28KT 9999 NSC 36/22 Q1004
KQN3 4 6.21 35/1 29.85 KQN3 251256Z AUTO VRB04KT 9999 CLR 36/01 A2985 RMK AO2 SLP097 WND DATA ESTMD T03550011
ABV DNAA Abuja, NG Nnamdi Azikiwe International Airport 4 6.21 35/18 29.82 DNAA 251300Z 05004KT CAVOK 35/18 Q1010 NOSIG
ENU DNEN Enegu, NG Akanu Ibiam International Airport 4 6.21 35/22 29.79 DNEN 251300Z 06004KT 9999 BKN015 35/22 Q1009 NOSIG
DNGO 14 6.21 35/11 29.85 DNGO 251300Z 10014KT CAVOK 35/11 Q1011
MFQ DRRM Maradi, NE Maradi Airport 8 6.21 35/7 29.85 DRRM 251300Z 11008KT 040V160 CAVOK 35/07 Q1011
SRH FTTA Sarh, TD Sarh Airport 8 6.21 35/10 29.79 FTTA 251300Z 36008KT CAVOK 35/10 Q1009
NDJ FTTJ N'Djamena, TD N'Djamena International Airport 10 6.21 35/4 29.79 FTTJ 251300Z 36010KT 360V070 CAVOK 35/04 Q1009 NOSIG
GOG FYGB Gobabis, NA Gobabis Airport 4 35/0 30.03 FYGB 251300Z AUTO 35004KT //// // ////// 35/00 Q1017
OTJ FYOW Otjiwarongo, NA Otjiwarongo Airport 6 35/2 29.94 FYOW 251300Z AUTO 28006KT //// // ////// 35/02 Q1014
UEL FQQL Quelimane, MZ Quelimane Airport 17 6.21 35/23 29.65 FQQL 251400Z 10017KT 9999 FEW020 35/23 Q1004
KRT HSSS Khartoum, SD Khartoum International Airport 10 6.21 35/-1 29.82 HSSS 251400Z 35010KT CAVOK 35/M01 Q1010 NOSIG
CMG SBCR Corumbá, BR Corumbá International Airport 9 6.21 35/22 29.85 SBCR 251400Z 35009KT 320V030 9999 FEW040 35/22 Q1011
IGU SBFI Foz Do Iguaçu, BR Cataratas International Airport 17 27 6.21 35/19 29.91 SBFI 251400Z 36017G27KT 9999 FEW030 35/19 Q1013
PET SBPK Pelotas, BR João Simões Lopes Neto International Airport 10 6.21 35/16 29.79 SBPK 251400Z 36010KT CAVOK 35/16 Q1009
AGT SGES Ciudad del Este, PY Guarani International Airport 20 6.21 35/18 29.88 SGES 251400Z 03020KT CAVOK 35/18 Q1012
SJS SLJE San José de Chiquitos, BO San José De Chiquitos Airport 8 6.21 35/23 29.97 SLJE 251400Z 35008KT 9999 FEW017 35/23 Q1015
BYC SLYA Yacuíba, BO Yacuiba Airport 12 6.21 35/21 29.70 SLYA 251400Z 06012KT 9999 NSC 35/21 Q1006
KAN DNKN Kano, NG Mallam Aminu International Airport 8 6.21 34/9 29.91 DNKN 251300Z 05008KT CAVOK 34/09 Q1013 NOSIG
ZAR DNZA Zaria, NG Zaria Airport 4 6.21 34/9 29.91 DNZA 251300Z 26004KT CAVOK 34/09 Q1013
THZ DRRT Tahoua, NE Tahoua Airport 2 6.21 34/2 29.85 DRRT 251300Z 14002KT CAVOK 34/02 Q1011
ZND DRZR Zinder, NE Zinder Airport 8 6.21 34/0 29.88 DRZR 251300Z 10008KT 050V150 CAVOK 34/00 Q1012
LRL DXNG Niamtougou, TG Niamtougou International Airport 6 6.21 34/7 29.91 DXNG 251300Z 09006KT 030V140 9999 FEW012 34/07 Q1013
BGF FEFF Bangui, CF Bangui M'Poko International Airport 3 6.21 34/22 29.79 FEFF 251300Z VRB03KT 9999 SCT026 34/22 Q1009 NOSIG
MVR FKKL Maroua, CM Salak Airport 6.21 34/9 29.82 FKKL 251300Z /////KT CAVOK 34/09 Q1010
MUB FBMN Maun, BW Maun Airport 9 6.21 34/18 29.85 FBMN 251400Z 34009KT 9999 FEW030 FEW035CB 34/18 Q1011
JUJ SASJ San Salvador de Jujuy, AR Gobernador Horacio Guzman International Airport 5 6.21 34/15 29.79 SASJ 251400Z 09005KT CAVOK 34/15 Q1009
BGX SBBG Bagé, BR Comandante Gustavo Kraemer Airport 14 6.21 34/15 29.82 SBBG 251400Z 33014KT CAVOK 34/15 Q1010
CGB SBCY Cuiabá, BR Marechal Rondon Airport 10 6.21 34/19 29.91 SBCY 251400Z 34010KT 9999 FEW020 34/19 Q1013
POA SBPA Porto Alegre, BR Salgado Filho Airport 8 6.21 34/16 29.85 SBPA 251400Z 33008KT 290V020 CAVOK 34/16 Q1011
RBO SLRB Roboré, BO Roboré Airport 15 6.21 34/23 29.91 SLRB 251400Z 36015KT 9999 FEW020 34/23 Q1013
TDD SLTR Trinidad, BO Teniente Av. Jorge Henrich Arauz Airport 10 4.35 34/25 29.85 SLTR 251400Z 34010KT 7000 FEW020 SCT200 34/25 Q1011
MKR YMEK AU Meekatharra Airport 5 6.21 34/8 29.79 YMEK 251400Z AUTO 13005KT 9999 // OVC125 34/08 Q1009
TEF YTEF AU Telfer Airport 10 6.21 34/15 29.73 YTEF 251400Z AUTO 34010KT 9999 // OVC120 34/15 Q1007
OUA DFFD Ouagadougou, BF Ouagadougou Airport 5 6.21 33/3 29.85 DFFD 251300Z 02005KT 340V080 CAVOK 33/03 Q1011 NOSIG
MPA FYKM Mpacha, NA Katima Mulilo Airport 7 6.21 33/16 29.88 FYKM 251300Z 25007KT 9999 FEW030TCU 33/16 Q1012